Augusta, Illinois
Current Conditions -  °F | °C
As of 4:54 PM on Sunday 21 Dec 2014 (Local Time) from KUIN Reporting Station
Overcast Overcast  
Wind Chill: 35°   Ceiling: 2600
Heat Index: 42°   Visibility: 10mi
Dew Point: 34°   Wind: 15mph
Humidity: 73%   Direction: 150°SSE
Pressure: 29.95"   Gusts: NA
Location:  40.23°N, 90.95°W
Report Text: KUIN 212254Z AUTO 15013KT 10SM BKN026 OVC042 06/01 A2995 RMK AO2 SLP145 T00560011
Loading
Personal Weather Stations






























Interactive Weather Map New forecast layout! Learn more

10-Day Weather Forecast

Advertisements
Track Severe Weather on mobile